createdAt,value
2022-09-30T00:00:29.481Z,7.90
2022-09-30T00:05:31.157Z,7.80
2022-09-30T00:10:32.763Z,7.80
2022-09-30T00:15:34.536Z,7.80
2022-09-30T00:20:37.233Z,7.80
2022-09-30T00:25:39.033Z,7.70
2022-09-30T00:30:41.089Z,7.70
2022-09-30T00:35:42.781Z,7.60
2022-09-30T00:40:44.653Z,7.60
2022-09-30T00:45:59.545Z,7.50
2022-09-30T00:51:02.750Z,7.50
2022-09-30T00:56:23.293Z,7.40
2022-09-30T01:01:25.214Z,7.40
2022-09-30T01:06:27.118Z,7.30
2022-09-30T01:11:29.180Z,7.30
2022-09-30T01:16:34.265Z,7.30
2022-09-30T01:21:54.665Z,7.30
2022-09-30T01:27:05.322Z,7.20
2022-09-30T01:32:22.010Z,7.20
2022-09-30T01:37:43.517Z,7.20
2022-09-30T01:42:53.549Z,7.20
2022-09-30T01:48:21.650Z,7.10
2022-09-30T01:53:38.332Z,7.10
2022-09-30T01:58:59.050Z,7.10
2022-09-30T02:04:07.228Z,7.10
2022-09-30T02:09:16.406Z,7.00
2022-09-30T02:14:21.956Z,7.00
2022-09-30T02:19:45.316Z,7.00
2022-09-30T02:24:50.673Z,7.00
2022-09-30T02:29:57.061Z,6.90
2022-09-30T02:35:05.814Z,6.90
2022-09-30T02:40:39.843Z,6.90
2022-09-30T02:46:18.758Z,7.00
2022-09-30T02:51:49.996Z,7.00
2022-09-30T02:57:19.323Z,7.00
2022-09-30T03:02:21.781Z,7.10
2022-09-30T03:07:24.054Z,7.20
2022-09-30T03:12:39.617Z,7.20
2022-09-30T03:18:08.226Z,7.10
2022-09-30T03:23:19.403Z,7.10
2022-09-30T03:28:34.788Z,7.00
2022-09-30T03:34:03.742Z,6.90
2022-09-30T03:39:18.985Z,6.90
2022-09-30T03:44:29.717Z,6.80
2022-09-30T03:49:55.913Z,6.80
2022-09-30T03:55:03.696Z,6.80
2022-09-30T04:00:07.005Z,6.80
2022-09-30T04:05:08.784Z,6.80
2022-09-30T04:10:11.841Z,6.80
2022-09-30T04:15:13.601Z,6.80
2022-09-30T04:20:15.450Z,6.70
2022-09-30T04:25:17.115Z,6.70
2022-09-30T04:30:23.871Z,6.70
2022-09-30T04:35:29.613Z,6.70
2022-09-30T04:40:31.254Z,6.70
2022-09-30T04:45:32.972Z,6.60
2022-09-30T04:50:34.724Z,6.60
2022-09-30T04:55:36.354Z,6.60
2022-09-30T05:00:38.530Z,6.60
2022-09-30T05:05:44.849Z,6.60
2022-09-30T05:10:55.083Z,6.60
2022-09-30T05:15:56.940Z,6.60
2022-09-30T05:20:58.737Z,6.60
2022-09-30T05:26:01.719Z,6.60
2022-09-30T05:31:05.955Z,6.50
2022-09-30T05:36:09.517Z,6.50
2022-09-30T05:41:13.533Z,6.50
2022-09-30T05:46:19.818Z,6.60
2022-09-30T05:51:22.083Z,6.60
2022-09-30T05:56:23.746Z,6.60
2022-09-30T06:01:25.469Z,6.80
2022-09-30T06:06:27.179Z,6.80
2022-09-30T06:11:28.878Z,6.90
2022-09-30T06:16:31.964Z,7.00
2022-09-30T06:21:33.785Z,7.00
2022-09-30T06:26:35.402Z,7.10
2022-09-30T06:31:37.372Z,7.20
2022-09-30T06:36:39.028Z,7.30
2022-09-30T06:41:43.940Z,7.40
2022-09-30T06:46:53.603Z,7.40
2022-09-30T06:51:56.023Z,7.50
2022-09-30T06:56:57.701Z,7.60
2022-09-30T07:01:59.441Z,7.80
2022-09-30T07:07:01.140Z,7.80
2022-09-30T07:12:02.765Z,8.10
2022-09-30T07:17:06.217Z,8.20
2022-09-30T07:22:26.679Z,8.40
2022-09-30T07:27:29.337Z,8.60
2022-09-30T07:32:31.078Z,8.80
2022-09-30T07:37:35.855Z,8.80
2022-09-30T07:42:45.357Z,8.90
2022-09-30T07:47:52.553Z,9.10
2022-09-30T07:52:56.272Z,9.20
2022-09-30T07:57:57.946Z,9.30
2022-09-30T08:02:59.579Z,9.40
2022-09-30T08:08:01.701Z,9.60
2022-09-30T08:13:05.690Z,9.70
2022-09-30T08:18:08.171Z,9.80
2022-09-30T08:23:09.963Z,9.90
2022-09-30T08:28:12.325Z,9.90
2022-09-30T08:33:14.132Z,10.20
2022-09-30T08:38:15.760Z,10.60
2022-09-30T08:43:35.664Z,11.10
2022-09-30T08:48:37.256Z,11.50
2022-09-30T08:53:43.784Z,11.50
2022-09-30T08:58:47.031Z,11.70
2022-09-30T09:03:48.788Z,12.00
2022-09-30T09:08:56.661Z,12.00
2022-09-30T09:14:24.782Z,11.90
2022-09-30T09:19:36.892Z,11.80
2022-09-30T09:24:47.246Z,11.80
2022-09-30T09:30:22.464Z,11.90
2022-09-30T09:36:06.842Z,12.00
2022-09-30T09:41:20.403Z,12.10
2022-09-30T09:46:48.147Z,12.20
2022-09-30T09:52:05.735Z,12.30
2022-09-30T09:57:12.024Z,12.40
2022-09-30T10:02:31.656Z,12.40
2022-09-30T10:07:34.397Z,12.60
2022-09-30T10:12:36.265Z,12.70
2022-09-30T10:17:38.361Z,12.80
2022-09-30T10:22:40.587Z,12.80
2022-09-30T10:27:53.412Z,12.80
2022-09-30T10:32:55.210Z,12.90
2022-09-30T10:37:59.349Z,13.00
2022-09-30T10:43:00.993Z,13.00
2022-09-30T10:48:07.398Z,13.20
2022-09-30T10:53:19.033Z,13.30
2022-09-30T10:58:26.471Z,13.30
2022-09-30T11:03:34.803Z,13.40
2022-09-30T11:08:44.819Z,13.50
2022-09-30T11:13:57.351Z,13.70
2022-09-30T11:19:16.201Z,13.70
2022-09-30T11:24:42.042Z,13.80
2022-09-30T11:30:07.779Z,13.90
2022-09-30T11:35:28.303Z,14.00
2022-09-30T11:40:36.980Z,14.10
2022-09-30T11:45:46.316Z,14.10
2022-09-30T11:51:20.366Z,14.00
2022-09-30T11:56:35.392Z,14.10
2022-09-30T12:01:45.987Z,14.10
2022-09-30T12:06:59.187Z,14.30
2022-09-30T12:12:15.289Z,14.40
2022-09-30T12:17:26.752Z,14.50
2022-09-30T12:22:40.151Z,14.50
2022-09-30T12:27:47.702Z,14.70
2022-09-30T12:33:00.054Z,14.60
2022-09-30T12:38:37.064Z,15.00
2022-09-30T12:44:03.544Z,15.00
2022-09-30T12:49:12.610Z,14.90
2022-09-30T12:54:19.569Z,15.00
2022-09-30T12:59:30.479Z,15.20
2022-09-30T13:04:34.424Z,15.60
2022-09-30T13:09:37.963Z,15.70
2022-09-30T13:14:43.900Z,15.90
2022-09-30T13:19:51.848Z,16.30
2022-09-30T13:25:05.469Z,16.70
2022-09-30T13:30:16.252Z,16.10
2022-09-30T13:35:34.370Z,16.20
2022-09-30T13:41:00.684Z,16.80
2022-09-30T13:46:22.338Z,17.10
2022-09-30T13:51:27.763Z,17.00
2022-09-30T13:56:37.323Z,17.30
2022-09-30T14:01:48.055Z,17.20
2022-09-30T14:07:12.495Z,16.70
2022-09-30T14:12:29.274Z,16.80
2022-09-30T14:17:46.267Z,17.10
2022-09-30T14:22:48.698Z,17.10
2022-09-30T14:28:16.153Z,16.80
2022-09-30T14:33:25.422Z,16.90
2022-09-30T14:38:29.922Z,17.20
2022-09-30T14:43:38.849Z,17.80
2022-09-30T14:48:45.527Z,18.00
2022-09-30T14:53:57.551Z,18.10
2022-09-30T14:59:00.874Z,18.30
2022-09-30T15:04:18.467Z,18.50
2022-09-30T15:09:20.116Z,18.80
2022-09-30T15:14:23.738Z,18.70
2022-09-30T15:19:28.278Z,18.30
2022-09-30T15:24:32.591Z,18.90
2022-09-30T15:29:34.387Z,18.80
2022-09-30T15:34:36.115Z,18.40
2022-09-30T15:40:04.182Z,18.00
2022-09-30T15:45:34.582Z,17.70
2022-09-30T15:50:49.025Z,17.40
2022-09-30T15:55:52.455Z,16.90
2022-09-30T16:01:09.260Z,16.70
2022-09-30T16:06:14.086Z,16.50
2022-09-30T16:11:27.735Z,16.20
2022-09-30T16:16:33.351Z,16.00
2022-09-30T16:21:45.393Z,15.80
2022-09-30T16:26:47.429Z,15.50
2022-09-30T16:31:51.440Z,15.30
2022-09-30T16:36:55.734Z,15.00
2022-09-30T16:41:57.367Z,14.80
2022-09-30T16:46:59.292Z,14.50
2022-09-30T16:52:01.060Z,14.40
2022-09-30T16:57:02.678Z,14.20
2022-09-30T17:02:05.428Z,14.00
2022-09-30T17:07:11.303Z,13.80
2022-09-30T17:12:13.123Z,13.60
2022-09-30T17:17:14.743Z,13.40
2022-09-30T17:22:16.324Z,13.30
2022-09-30T17:27:17.931Z,13.20
2022-09-30T17:32:19.540Z,13.10
2022-09-30T17:37:22.069Z,13.00
2022-09-30T17:42:42.270Z,12.90
2022-09-30T17:47:43.970Z,12.80
2022-09-30T17:52:45.647Z,12.60
2022-09-30T17:57:47.291Z,12.50
2022-09-30T18:02:49.045Z,12.40
2022-09-30T18:07:50.769Z,12.20
2022-09-30T18:12:54.702Z,12.10
2022-09-30T18:17:56.679Z,12.00
2022-09-30T18:22:58.334Z,11.90
2022-09-30T18:28:00.232Z,11.90
2022-09-30T18:33:03.033Z,11.80
2022-09-30T18:38:06.517Z,11.60
2022-09-30T18:43:13.404Z,11.50
2022-09-30T18:48:15.552Z,11.40
2022-09-30T18:53:22.306Z,11.40
2022-09-30T18:58:23.990Z,11.30
2022-09-30T19:03:29.383Z,11.20
2022-09-30T19:08:31.124Z,11.10
2022-09-30T19:13:32.736Z,11.10
2022-09-30T19:18:34.485Z,11.00
2022-09-30T19:23:36.766Z,11.00
2022-09-30T19:28:38.680Z,10.90
2022-09-30T19:33:48.487Z,10.80
2022-09-30T19:39:10.416Z,10.70
2022-09-30T19:44:18.694Z,10.60
2022-09-30T19:49:21.937Z,10.50
2022-09-30T19:54:36.271Z,10.40
2022-09-30T19:59:39.752Z,10.40
2022-09-30T20:04:42.158Z,10.30
2022-09-30T20:09:43.875Z,10.30
2022-09-30T20:15:04.068Z,10.20
2022-09-30T20:20:25.066Z,10.20
2022-09-30T20:25:26.761Z,10.10
2022-09-30T20:30:29.852Z,10.00
2022-09-30T20:35:35.322Z,9.90
2022-09-30T20:40:37.008Z,9.90
2022-09-30T20:45:41.184Z,9.80
2022-09-30T20:50:45.143Z,9.70
2022-09-30T20:55:46.768Z,9.70
2022-09-30T21:00:48.462Z,9.60
2022-09-30T21:05:53.467Z,9.60
2022-09-30T21:10:56.252Z,9.50
2022-09-30T21:16:02.454Z,9.50
2022-09-30T21:21:05.036Z,9.40
2022-09-30T21:26:10.291Z,9.30
2022-09-30T21:31:21.439Z,9.30
2022-09-30T21:36:24.168Z,9.30
2022-09-30T21:41:25.794Z,9.20
2022-09-30T21:46:27.447Z,9.20
2022-09-30T21:51:34.339Z,9.10
2022-09-30T21:56:36.996Z,9.10
2022-09-30T22:01:39.247Z,9.00
2022-09-30T22:06:40.933Z,9.00
2022-09-30T22:11:43.850Z,9.00
2022-09-30T22:16:45.793Z,8.90
2022-09-30T22:21:47.812Z,8.90
2022-09-30T22:26:49.414Z,8.90
2022-09-30T22:31:51.076Z,8.90
2022-09-30T22:37:11.853Z,8.80
2022-09-30T22:42:13.462Z,8.80
2022-09-30T22:47:15.110Z,8.70
2022-09-30T22:52:16.809Z,8.70
2022-09-30T22:57:18.474Z,8.70
2022-09-30T23:02:22.056Z,8.60
2022-09-30T23:07:23.771Z,8.60
2022-09-30T23:12:25.435Z,8.60
2022-09-30T23:17:27.140Z,8.60
2022-09-30T23:22:28.744Z,8.50
2022-09-30T23:27:30.349Z,8.50
2022-09-30T23:32:31.955Z,8.50
2022-09-30T23:37:33.594Z,8.50
2022-09-30T23:42:35.249Z,8.50
2022-09-30T23:47:37.345Z,8.50
2022-09-30T23:52:38.986Z,8.40
2022-09-30T23:57:41.091Z,8.50
